Latest Coastal Weather Observations for Gladstone

IDQ60701

Issued at 3:22 am EST Sunday 19 November 2017 (issued every 10 minutes, with the page automatically refreshed every 10 minutes)

About coastal observations | Map of coastal stations | Coastal observations for QLD | Marine services | Other Formats
Station Details ID: 039123 Name: GLADSTONE RADAR Lat: -23.86 Lon: 151.26 Height: 74.5 m
Data from the previous 72 hours. | See also: Recent months at Gladstone
Date/Time
EST
Temp
°C
Wind Pressure Rain since
9am
mm
Weather Cloud Vis
km
Sea
Height
m
Swell
Dir  Spd
kts
Gust
kts
hPa Trend Height
m
Period
s
Dir
19/03:00am 17.9 SE 9 13 1012.5 - 0.0 - - - - - - -
19/02:30am 18.3 SSE 8 12 1012.9 - 0.0 - - - - - - -
19/02:00am 18.4 SE 9 13 1012.8 - 0.0 - - - - - - -
19/01:30am 18.4 SE 9 14 1013.4 - 0.0 - - - - - - -
19/01:00am 18.5 SE 10 16 1013.8 - 0.0 - - - - - - -
19/12:30am 18.7 SE 9 13 1014.0 - 0.0 - - - - - - -
19/12:00am 19.1 SE 10 16 1014.4 - 0.0 - - - - - - -
 
Date/Time
EST
Temp
°C
Wind Pressure Rain since
9am
mm
Weather Cloud Vis
km
Sea
Height
m
Swell
Dir  Spd
kts
Gust
kts
hPa Trend Height
m
Period
s
Dir
18/11:30pm 19.3 SE 10 16 1014.8 - 0.0 - - - - - - -
18/11:00pm 19.5 SE 9 14 1015.0 - 0.0 - - - - - - -
18/10:30pm 20.2 SE 12 19 1015.4 - 0.0 - - - - - - -
18/10:00pm 20.3 ESE 12 18 1015.3 - 0.0 - - - - - - -
18/09:30pm 20.1 SE 11 17 1015.4 - 0.0 - - - - - - -
18/09:00pm 19.9 SE 11 17 1015.0 - 0.0 - - - - - - -
18/08:30pm 20.4 ESE 17 24 1014.5 - 0.0 - - - - - - -
18/08:10pm 20.9 ESE 16 27 1014.2 - 0.0 - - - - - - -
18/08:00pm 21.7 E 13 20 1014.2 - 0.0 - - - - - - -
18/07:30pm 21.7 E 12 16 1013.8 - 0.0 - - - - - - -
18/07:00pm 21.8 E 13 18 1013.6 - 0.0 - - - - - - -
18/06:30pm 21.9 ENE 12 17 1013.4 - 0.0 - - - - - - -
18/06:00pm 22.1 ENE 12 16 1013.2 - 0.0 - - - - - - -
18/05:30pm 22.3 E 12 17 1012.8 - 0.0 - - - - - - -
18/05:00pm 23.0 ENE 12 17 1012.4 - 0.0 - - - - - - -
18/04:30pm 24.2 ENE 12 17 1012.1 - 0.0 - - - - - - -
18/04:00pm 24.9 ENE 14 18 1012.2 - 0.0 - - - - - - -
18/03:30pm 25.6 ENE 12 17 1012.3 - 0.0 - - - - - - -
18/03:00pm 25.9 ENE 12 16 1012.6 - 0.0 - - - - - - -
18/02:30pm 26.8 ENE 11 16 1012.9 - 0.0 - - - - - - -
18/02:00pm 26.5 ENE 12 17 1013.0 - 0.0 - - - - - - -
18/01:30pm 25.8 E 13 19 1013.1 - 0.0 - - - - - - -
18/01:00pm 24.2 E 13 19 1013.5 - 0.0 - - - - - - -
18/12:30pm 25.3 E 12 17 1013.9 - 0.0 - - - - - - -
18/12:00pm 23.9 E 13 19 1013.5 - 0.0 - - - - - - -
18/11:30am 23.6 E 15 21 1013.0 - 0.0 - - - - - - -
18/11:00am 23.4 E 14 19 1013.9 - 0.0 - - - - - - -
18/10:30am 23.9 ENE 12 16 1014.6 - 0.0 - - - - - - -
18/10:00am 23.5 SE 6 9 1015.3 - 0.0 - - - - - - -
18/09:30am 22.9 SSW 5 9 1016.1 - 0.0 - - - - - - -
18/09:00am 22.1 SSE 5 9 1016.1 - 0.2 - - - - - - -
18/08:30am 21.2 SSE 9 13 1015.5 - 0.2 - - - - - - -
18/08:00am 20.1 S 9 13 1015.5 - 0.2 - - - - - - -
18/07:30am 19.2 SE 9 12 1015.2 - 0.0 - - - - - - -
18/07:00am 19.0 S 7 11 1015.2 - 0.0 - - - - - - -
18/06:30am 19.6 SSW 10 16 1015.9 - 0.0 - - - - - - -
18/06:00am 19.8 SW 9 17 1016.0 - 0.0 - - - - - - -
18/05:30am 20.2 SSW 9 13 1015.6 - 0.0 - - - - - - -
18/05:00am 20.2 SSW 7 11 1014.9 - 0.0 - - - - - - -
18/04:30am 20.3 S 6 9 1014.6 - 0.0 - - - - - - -
18/04:00am 20.4 S 7 9 1014.2 - 0.0 - - - - - - -
18/03:30am 20.5 ESE 5 7 1014.0 - 0.0 - - - - - - -
18/03:00am 21.1 E 5 7 1013.8 - 0.0 - - - - - - -
18/02:30am 21.5 E 9 12 1013.6 - 0.0 - - - - - - -
18/02:00am 21.7 E 11 14 1013.7 - 0.0 - - - - - - -
18/01:30am 21.9 E 13 18 1013.7 - 0.0 - - - - - - -
18/01:00am 21.9 E 12 18 1013.8 - 0.0 - - - - - - -
18/12:30am 22.0 E 13 19 1014.1 - 0.0 - - - - - - -
18/12:00am 22.1 ENE 13 18 1014.7 - 0.0 - - - - - - -
 
Date/Time
EST
Temp
°C
Wind Pressure Rain since
9am
mm
Weather Cloud Vis
km
Sea
Height
m
Swell
Dir  Spd
kts
Gust
kts
hPa Trend Height
m
Period
s
Dir
17/11:30pm 22.5 ENE 13 20 1014.6 - 0.0 - - - - - - -
17/11:00pm 22.5 ENE 13 19 1015.0 - 0.0 - - - - - - -
17/10:30pm 22.6 ENE 12 17 1015.2 - 0.0 - - - - - - -
17/10:00pm 22.3 E 9 15 1015.5 - 0.0 - - - - - - -
17/09:30pm 22.3 ENE 10 13 1015.6 - 0.0 - - - - - - -
17/09:00pm 22.1 E 9 13 1015.2 - 0.0 - - - - - - -
17/08:30pm 22.2 ENE 11 16 1015.2 - 0.0 - - - - - - -
17/08:00pm 22.2 ENE 13 18 1014.7 - 0.0 - - - - - - -
17/07:30pm 22.3 ENE 11 16 1014.8 - 0.0 - - - - - - -
17/07:00pm 22.4 E 12 17 1014.4 - 0.0 - - - - - - -
17/06:30pm 22.5 E 14 18 1014.1 - 0.0 - - - - - - -
17/06:00pm 22.8 ENE 14 20 1013.9 - 0.0 - - - - - - -
17/05:30pm 23.3 ENE 14 20 1013.8 - 0.0 - - - - - - -
17/05:00pm 23.4 ENE 16 21 1013.8 - 0.0 - - - - - - -
17/04:30pm 24.4 ENE 15 20 1014.0 - 0.0 - - - - - - -
17/04:00pm 25.0 E 16 21 1014.0 - 0.0 - - - - - - -
17/03:30pm 25.4 ENE 15 22 1014.3 - 0.0 - - - - - - -
17/03:00pm 25.5 ENE 15 22 1014.6 - 0.0 - - - - - - -
17/02:30pm 26.7 ENE 14 20 1014.8 - 0.0 - - - - - - -
17/02:00pm 26.5 ENE 15 21 1015.0 - 0.0 - - - - - - -
17/01:30pm 27.4 ENE 15 20 1015.3 - 0.0 - - - - - - -
17/01:00pm 27.6 ENE 15 21 1015.5 - 0.0 - - - - - - -
17/12:30pm 27.6 ENE 15 20 1015.7 - 0.0 - - - - - - -
17/12:00pm 27.1 ENE 15 20 1015.9 - 0.0 - - - - - - -
17/11:30am 27.9 E 13 18 1016.0 - 0.0 - - - - - - -
17/11:00am 28.5 E 13 19 1016.6 - 0.0 - - - - - - -
17/10:30am 26.9 ENE 15 21 1016.5 - 0.0 - - - - - - -
17/10:00am 27.5 ENE 13 19 1016.9 - 0.0 - - - - - - -
17/09:30am 27.5 ENE 11 18 1016.9 - 0.0 - - - - - - -
17/09:00am 26.8 ENE 11 18 1016.6 - 0.0 - - - - - - -
17/08:30am 26.2 E 10 17 1016.3 - 0.0 - - - - - - -
17/08:00am 25.4 E 11 17 1016.3 - 0.0 - - - - - - -
17/07:30am 24.8 SE 6 11 1016.2 - 0.0 - - - - - - -
17/07:00am 23.4 SE 7 10 1016.0 - 0.0 - - - - - - -
17/06:30am 22.2 SE 7 11 1015.7 - 0.0 - - - - - - -
17/06:00am 20.7 ESE 8 10 1015.1 - 0.0 - - - - - - -
17/05:30am 19.7 ESE 9 12 1014.9 - 0.0 - - - - - - -
17/05:00am 19.4 SE 9 11 1014.8 - 0.0 - - - - - - -
17/04:30am 19.5 SE 7 10 1014.8 - 0.0 - - - - - - -
17/04:00am 19.5 SE 8 11 1014.6 - 0.0 - - - - - - -
17/03:30am 19.6 SE 8 10 1014.5 - 0.0 - - - - - - -
17/03:00am 19.7 SE 8 10 1014.4 - 0.0 - - - - - - -
17/02:30am 19.9 SE 6 9 1014.6 - 0.0 - - - - - - -
17/02:00am 20.9 E 8 11 1014.8 - 0.0 - - - - - - -
17/01:30am 21.1 E 9 11 1014.9 - 0.0 - - - - - - -
17/01:00am 21.2 ENE 8 11 1015.2 - 0.0 - - - - - - -
17/12:30am 21.3 ENE 9 12 1015.4 - 0.0 - - - - - - -
17/12:00am 21.6 E 10 13 1015.8 - 0.0 - - - - - - -
 
Date/Time
EST
Temp
°C
Wind Pressure Rain since
9am
mm
Weather Cloud Vis
km
Sea
Height
m
Swell
Dir  Spd
kts
Gust
kts
hPa Trend Height
m
Period
s
Dir
16/11:30pm 21.7 ENE 10 15 1016.0 - 0.0 - - - - - - -
16/11:00pm 21.7 ENE 10 14 1016.3 - 0.0 - - - - - - -
16/10:30pm 21.8 ENE 10 14 1016.2 - 0.0 - - - - - - -
16/10:00pm 21.8 ENE 11 16 1016.1 - 0.0 - - - - - - -
16/09:30pm 21.8 ENE 12 17 1016.0 - 0.0 - - - - - - -
16/09:00pm 22.0 ENE 10 16 1015.9 - 0.0 - - - - - - -
16/08:30pm 22.1 ENE 13 17 1015.7 - 0.0 - - - - - - -
16/08:00pm 22.2 ENE 12 17 1015.6 - 0.0 - - - - - - -
16/07:30pm 22.2 ENE 11 16 1015.5 - 0.0 - - - - - - -
16/07:00pm 22.2 ENE 10 15 1015.3 - 0.0 - - - - - - -
16/06:30pm 22.5 ENE 11 16 1015.1 - 0.0 - - - - - - -
16/06:00pm 23.1 ENE 10 16 1014.7 - 0.0 - - - - - - -
16/05:30pm 23.5 ENE 12 17 1014.3 - 0.0 - - - - - - -
16/05:00pm 24.2 ENE 13 17 1014.1 - 0.0 - - - - - - -
16/04:30pm 25.1 ENE 14 18 1013.8 - 0.0 - - - - - - -
16/04:00pm 25.7 ENE 13 17 1013.6 - 0.0 - - - - - - -
16/03:30pm 26.6 ENE 11 17 1013.5 - 0.0 - - - - - - -
16/03:00pm 27.0 ENE 12 17 1013.6 - 0.0 - - - - - - -
16/02:30pm 26.9 ENE 12 17 1013.7 - 0.0 - - - - - - -
16/02:00pm 27.5 ENE 11 18 1013.8 - 0.0 - - - - - - -
16/01:30pm 27.9 NE 13 17 1014.1 - 0.0 - - - - - - -
16/01:00pm 28.3 ENE 11 17 1014.4 - 0.0 - - - - - - -
16/12:30pm 28.0 ENE 11 16 1014.9 - 0.0 - - - - - - -
16/12:00pm 28.7 ENE 10 16 1015.4 - 0.0 - - - - - - -
16/11:30am 29.1 ENE 11 15 1015.7 - 0.0 - - - - - - -
16/11:00am 27.9 ENE 9 15 1016.1 - 0.0 - - - - - - -
16/10:30am 28.4 ENE 10 15 1016.2 - 0.0 - - - - - - -
16/10:00am 27.3 E 11 16 1016.3 - 0.0 - - - - - - -
16/09:30am 27.4 ENE 9 14 1016.3 - 0.0 - - - - - - -
16/09:00am 27.0 E 9 15 1016.4 - 0.0 - - - - - - -
16/08:30am 25.9 ENE 10 17 1016.2 - 0.0 - - - - - - -
16/08:00am 25.2 E 11 15 1016.2 - 0.0 - - - - - - -
16/07:30am 24.6 ESE 8 13 1016.1 - 0.0 - - - - - - -
16/07:00am 23.4 ESE 7 13 1016.0 - 0.0 - - - - - - -
16/06:30am 22.0 SE 8 11 1015.8 - 0.0 - - - - - - -
16/06:00am 21.0 SE 8 11 1015.5 - 0.0 - - - - - - -
16/05:30am 19.8 SE 8 11 1015.3 - 0.0 - - - - - - -
16/05:00am 19.6 SSE 8 12 1015.1 - 0.0 - - - - - - -
16/04:30am 19.5 SSE 7 11 1014.9 - 0.0 - - - - - - -
16/04:00am 19.5 SSE 8 11 1014.8 - 0.0 - - - - - - -
16/03:30am 19.4 SE 8 10 1014.6 - 0.0 - - - - - - -

Other Formats:

Comma delimited format used in spreadsheet applications
http://www.bom.gov.au/fwo/IDQ60701/IDQ60701.94380.axf

JavaScript Object Notation format (JSON) in row-major order
http://www.bom.gov.au/fwo/IDQ60701/IDQ60701.94380.json